sensor_id;sensor_type;location;lat;lon;timestamp;P1;durP1;ratioP1;P2;durP2;ratioP2
22030;SDS011;11179;52.106;21.024;2023-11-21T00:00:14;28.88;;;14.90;;
22030;SDS011;11179;52.106;21.024;2023-11-21T00:02:41;30.17;;;16.03;;
22030;SDS011;11179;52.106;21.024;2023-11-21T00:05:10;33.50;;;14.50;;
22030;SDS011;11179;52.106;21.024;2023-11-21T00:07:37;36.78;;;16.38;;
22030;SDS011;11179;52.106;21.024;2023-11-21T00:10:04;34.45;;;16.55;;
22030;SDS011;11179;52.106;21.024;2023-11-21T00:12:39;35.05;;;17.60;;
22030;SDS011;11179;52.106;21.024;2023-11-21T00:15:07;31.13;;;15.32;;
22030;SDS011;11179;52.106;21.024;2023-11-21T00:17:36;30.10;;;15.68;;
22030;SDS011;11179;52.106;21.024;2023-11-21T00:20:03;34.45;;;17.75;;
22030;SDS011;11179;52.106;21.024;2023-11-21T00:22:31;34.70;;;16.38;;
22030;SDS011;11179;52.106;21.024;2023-11-21T00:24:57;38.05;;;17.70;;
22030;SDS011;11179;52.106;21.024;2023-11-21T00:27:22;37.77;;;17.67;;
22030;SDS011;11179;52.106;21.024;2023-11-21T00:29:48;38.93;;;18.43;;
22030;SDS011;11179;52.106;21.024;2023-11-21T00:32:13;36.23;;;17.50;;
22030;SDS011;11179;52.106;21.024;2023-11-21T00:34:38;39.77;;;18.77;;
22030;SDS011;11179;52.106;21.024;2023-11-21T00:37:05;38.53;;;19.45;;
22030;SDS011;11179;52.106;21.024;2023-11-21T00:39:30;41.93;;;18.70;;
22030;SDS011;11179;52.106;21.024;2023-11-21T00:41:55;44.40;;;19.20;;
22030;SDS011;11179;52.106;21.024;2023-11-21T00:44:20;38.27;;;21.03;;
22030;SDS011;11179;52.106;21.024;2023-11-21T00:46:46;45.47;;;21.77;;
22030;SDS011;11179;52.106;21.024;2023-11-21T00:49:11;42.53;;;20.60;;
22030;SDS011;11179;52.106;21.024;2023-11-21T00:51:36;47.27;;;23.03;;
22030;SDS011;11179;52.106;21.024;2023-11-21T00:54:02;51.67;;;21.47;;
22030;SDS011;11179;52.106;21.024;2023-11-21T00:56:27;44.77;;;21.70;;
22030;SDS011;11179;52.106;21.024;2023-11-21T00:58:53;49.50;;;21.87;;
22030;SDS011;11179;52.106;21.024;2023-11-21T01:01:19;55.27;;;23.80;;
22030;SDS011;11179;52.106;21.024;2023-11-21T01:03:48;54.25;;;22.45;;
22030;SDS011;11179;52.106;21.024;2023-11-21T01:06:13;47.22;;;22.25;;
22030;SDS011;11179;52.106;21.024;2023-11-21T01:08:39;58.33;;;24.20;;
22030;SDS011;11179;52.106;21.024;2023-11-21T01:11:05;61.70;;;25.00;;
22030;SDS011;11179;52.106;21.024;2023-11-21T01:13:33;51.67;;;23.92;;
22030;SDS011;11179;52.106;21.024;2023-11-21T01:15:58;49.87;;;22.00;;
22030;SDS011;11179;52.106;21.024;2023-11-21T01:18:24;65.80;;;26.00;;
22030;SDS011;11179;52.106;21.024;2023-11-21T01:20:50;57.90;;;25.13;;
22030;SDS011;11179;52.106;21.024;2023-11-21T01:23:17;55.03;;;23.90;;
22030;SDS011;11179;52.106;21.024;2023-11-21T01:25:43;50.47;;;23.33;;
22030;SDS011;11179;52.106;21.024;2023-11-21T01:28:08;48.10;;;24.00;;
22030;SDS011;11179;52.106;21.024;2023-11-21T01:30:33;60.30;;;25.90;;
22030;SDS011;11179;52.106;21.024;2023-11-21T01:32:59;52.00;;;24.73;;
22030;SDS011;11179;52.106;21.024;2023-11-21T01:35:24;62.77;;;25.80;;
22030;SDS011;11179;52.106;21.024;2023-11-21T01:37:49;74.83;;;26.20;;
22030;SDS011;11179;52.106;21.024;2023-11-21T01:40:15;53.00;;;24.37;;
22030;SDS011;11179;52.106;21.024;2023-11-21T01:42:41;50.23;;;23.20;;
22030;SDS011;11179;52.106;21.024;2023-11-21T01:45:08;55.22;;;23.55;;
22030;SDS011;11179;52.106;21.024;2023-11-21T01:47:34;53.03;;;23.13;;
22030;SDS011;11179;52.106;21.024;2023-11-21T01:50:01;56.25;;;24.48;;
22030;SDS011;11179;52.106;21.024;2023-11-21T01:52:29;58.45;;;22.98;;
22030;SDS011;11179;52.106;21.024;2023-11-21T01:54:55;61.30;;;23.93;;
22030;SDS011;11179;52.106;21.024;2023-11-21T01:57:20;59.50;;;25.47;;
22030;SDS011;11179;52.106;21.024;2023-11-21T01:59:46;47.90;;;21.37;;
22030;SDS011;11179;52.106;21.024;2023-11-21T02:02:13;54.92;;;25.52;;
22030;SDS011;11179;52.106;21.024;2023-11-21T02:04:39;54.83;;;24.47;;
22030;SDS011;11179;52.106;21.024;2023-11-21T02:07:04;60.27;;;23.67;;
22030;SDS011;11179;52.106;21.024;2023-11-21T02:09:32;53.08;;;24.70;;
22030;SDS011;11179;52.106;21.024;2023-11-21T02:11:59;54.72;;;24.60;;
22030;SDS011;11179;52.106;21.024;2023-11-21T02:14:25;55.30;;;23.60;;
22030;SDS011;11179;52.106;21.024;2023-11-21T02:16:52;49.90;;;22.65;;
22030;SDS011;11179;52.106;21.024;2023-11-21T02:19:19;50.03;;;22.52;;
22030;SDS011;11179;52.106;21.024;2023-11-21T02:21:51;55.40;;;24.58;;
22030;SDS011;11179;52.106;21.024;2023-11-21T02:24:20;61.58;;;25.10;;
22030;SDS011;11179;52.106;21.024;2023-11-21T02:26:46;51.20;;;24.55;;
22030;SDS011;11179;52.106;21.024;2023-11-21T02:29:12;54.77;;;27.27;;
22030;SDS011;11179;52.106;21.024;2023-11-21T02:31:38;52.80;;;25.97;;
22030;SDS011;11179;52.106;21.024;2023-11-21T02:34:12;55.55;;;25.52;;
22030;SDS011;11179;52.106;21.024;2023-11-21T02:36:38;53.72;;;26.45;;
22030;SDS011;11179;52.106;21.024;2023-11-21T02:39:04;52.80;;;26.77;;
22030;SDS011;11179;52.106;21.024;2023-11-21T02:41:29;52.87;;;26.27;;
22030;SDS011;11179;52.106;21.024;2023-11-21T02:43:55;49.57;;;23.37;;
22030;SDS011;11179;52.106;21.024;2023-11-21T02:46:20;48.90;;;23.90;;
22030;SDS011;11179;52.106;21.024;2023-11-21T02:48:45;50.50;;;23.80;;
22030;SDS011;11179;52.106;21.024;2023-11-21T02:51:11;54.57;;;27.30;;
22030;SDS011;11179;52.106;21.024;2023-11-21T02:53:36;63.33;;;26.07;;
22030;SDS011;11179;52.106;21.024;2023-11-21T02:56:03;53.92;;;27.90;;
22030;SDS011;11179;52.106;21.024;2023-11-21T02:58:29;50.13;;;23.97;;
22030;SDS011;11179;52.106;21.024;2023-11-21T03:00:55;47.87;;;25.03;;
22030;SDS011;11179;52.106;21.024;2023-11-21T03:03:21;46.17;;;22.33;;
22030;SDS011;11179;52.106;21.024;2023-11-21T03:05:48;47.05;;;22.00;;
22030;SDS011;11179;52.106;21.024;2023-11-21T03:08:14;47.57;;;22.83;;
22030;SDS011;11179;52.106;21.024;2023-11-21T03:10:39;39.10;;;19.70;;
22030;SDS011;11179;52.106;21.024;2023-11-21T03:13:04;40.83;;;20.20;;
22030;SDS011;11179;52.106;21.024;2023-11-21T03:15:30;40.17;;;20.33;;
22030;SDS011;11179;52.106;21.024;2023-11-21T03:17:55;44.10;;;21.67;;
22030;SDS011;11179;52.106;21.024;2023-11-21T03:20:20;43.90;;;22.63;;
22030;SDS011;11179;52.106;21.024;2023-11-21T03:22:45;43.57;;;23.20;;
22030;SDS011;11179;52.106;21.024;2023-11-21T03:25:11;37.33;;;20.17;;
22030;SDS011;11179;52.106;21.024;2023-11-21T03:27:36;35.70;;;19.73;;
22030;SDS011;11179;52.106;21.024;2023-11-21T03:30:03;34.72;;;18.92;;
22030;SDS011;11179;52.106;21.024;2023-11-21T03:32:31;34.65;;;19.45;;
22030;SDS011;11179;52.106;21.024;2023-11-21T03:34:58;33.50;;;18.92;;
22030;SDS011;11179;52.106;21.024;2023-11-21T03:37:24;38.67;;;19.40;;
22030;SDS011;11179;52.106;21.024;2023-11-21T03:39:49;34.30;;;19.60;;
22030;SDS011;11179;52.106;21.024;2023-11-21T03:42:15;33.90;;;17.93;;
22030;SDS011;11179;52.106;21.024;2023-11-21T03:44:40;41.40;;;21.60;;
22030;SDS011;11179;52.106;21.024;2023-11-21T03:47:06;39.07;;;19.67;;
22030;SDS011;11179;52.106;21.024;2023-11-21T03:49:31;37.20;;;19.50;;
22030;SDS011;11179;52.106;21.024;2023-11-21T03:51:56;29.10;;;15.30;;
22030;SDS011;11179;52.106;21.024;2023-11-21T03:54:22;31.47;;;17.57;;
22030;SDS011;11179;52.106;21.024;2023-11-21T03:56:47;39.20;;;18.00;;
22030;SDS011;11179;52.106;21.024;2023-11-21T03:59:12;29.33;;;15.87;;
22030;SDS011;11179;52.106;21.024;2023-11-21T04:01:37;33.13;;;18.20;;
22030;SDS011;11179;52.106;21.024;2023-11-21T04:04:03;36.97;;;19.00;;
22030;SDS011;11179;52.106;21.024;2023-11-21T04:06:29;33.50;;;18.70;;
22030;SDS011;11179;52.106;21.024;2023-11-21T04:08:54;35.80;;;16.63;;
22030;SDS011;11179;52.106;21.024;2023-11-21T04:11:19;33.03;;;18.10;;
22030;SDS011;11179;52.106;21.024;2023-11-21T04:13:45;36.87;;;18.23;;
22030;SDS011;11179;52.106;21.024;2023-11-21T04:16:11;38.13;;;18.35;;
22030;SDS011;11179;52.106;21.024;2023-11-21T04:18:37;32.10;;;17.93;;
22030;SDS011;11179;52.106;21.024;2023-11-21T04:21:06;36.70;;;19.25;;
22030;SDS011;11179;52.106;21.024;2023-11-21T04:23:32;36.03;;;19.60;;
22030;SDS011;11179;52.106;21.024;2023-11-21T04:25:58;42.00;;;18.67;;
22030;SDS011;11179;52.106;21.024;2023-11-21T04:28:24;39.33;;;20.90;;
22030;SDS011;11179;52.106;21.024;2023-11-21T04:30:50;41.73;;;20.73;;
22030;SDS011;11179;52.106;21.024;2023-11-21T04:33:18;39.50;;;20.83;;
22030;SDS011;11179;52.106;21.024;2023-11-21T04:35:43;48.80;;;21.63;;
22030;SDS011;11179;52.106;21.024;2023-11-21T04:38:09;39.50;;;19.33;;
22030;SDS011;11179;52.106;21.024;2023-11-21T04:40:34;33.53;;;16.53;;
22030;SDS011;11179;52.106;21.024;2023-11-21T04:43:00;33.67;;;17.17;;
22030;SDS011;11179;52.106;21.024;2023-11-21T04:45:25;37.77;;;19.00;;
22030;SDS011;11179;52.106;21.024;2023-11-21T04:47:50;37.57;;;19.40;;
22030;SDS011;11179;52.106;21.024;2023-11-21T04:50:17;31.52;;;17.58;;
22030;SDS011;11179;52.106;21.024;2023-11-21T04:52:43;37.87;;;18.80;;
22030;SDS011;11179;52.106;21.024;2023-11-21T04:55:08;31.43;;;16.80;;
22030;SDS011;11179;52.106;21.024;2023-11-21T04:57:35;32.05;;;16.88;;
22030;SDS011;11179;52.106;21.024;2023-11-21T05:00:01;35.20;;;18.27;;
22030;SDS011;11179;52.106;21.024;2023-11-21T05:02:30;34.22;;;18.30;;
22030;SDS011;11179;52.106;21.024;2023-11-21T05:04:56;33.97;;;18.57;;
22030;SDS011;11179;52.106;21.024;2023-11-21T05:07:22;35.50;;;19.10;;
22030;SDS011;11179;52.106;21.024;2023-11-21T05:09:47;33.47;;;17.70;;
22030;SDS011;11179;52.106;21.024;2023-11-21T05:12:13;39.73;;;19.10;;
22030;SDS011;11179;52.106;21.024;2023-11-21T05:14:39;40.60;;;19.35;;
22030;SDS011;11179;52.106;21.024;2023-11-21T05:17:04;31.50;;;17.10;;
22030;SDS011;11179;52.106;21.024;2023-11-21T05:19:30;31.67;;;17.70;;
22030;SDS011;11179;52.106;21.024;2023-11-21T05:21:55;26.47;;;15.80;;
22030;SDS011;11179;52.106;21.024;2023-11-21T05:24:20;33.73;;;17.37;;
22030;SDS011;11179;52.106;21.024;2023-11-21T05:26:46;32.00;;;17.20;;
22030;SDS011;11179;52.106;21.024;2023-11-21T05:29:11;31.97;;;16.30;;
22030;SDS011;11179;52.106;21.024;2023-11-21T05:31:36;25.47;;;14.57;;
22030;SDS011;11179;52.106;21.024;2023-11-21T05:34:03;28.88;;;15.32;;
22030;SDS011;11179;52.106;21.024;2023-11-21T05:36:30;24.05;;;13.57;;
22030;SDS011;11179;52.106;21.024;2023-11-21T05:38:55;25.27;;;14.07;;
22030;SDS011;11179;52.106;21.024;2023-11-21T05:41:21;28.20;;;15.27;;
22030;SDS011;11179;52.106;21.024;2023-11-21T05:43:46;23.20;;;13.30;;
22030;SDS011;11179;52.106;21.024;2023-11-21T05:46:11;26.13;;;14.27;;
22030;SDS011;11179;52.106;21.024;2023-11-21T05:48:38;33.88;;;15.70;;
22030;SDS011;11179;52.106;21.024;2023-11-21T05:51:04;26.33;;;13.50;;
22030;SDS011;11179;52.106;21.024;2023-11-21T05:53:31;28.00;;;15.23;;
22030;SDS011;11179;52.106;21.024;2023-11-21T05:55:56;29.77;;;15.37;;
22030;SDS011;11179;52.106;21.024;2023-11-21T05:58:22;26.43;;;13.70;;
22030;SDS011;11179;52.106;21.024;2023-11-21T06:00:47;29.93;;;16.27;;
22030;SDS011;11179;52.106;21.024;2023-11-21T06:03:13;28.40;;;13.10;;
22030;SDS011;11179;52.106;21.024;2023-11-21T06:05:38;26.17;;;14.17;;
22030;SDS011;11179;52.106;21.024;2023-11-21T06:08:04;25.23;;;13.50;;
22030;SDS011;11179;52.106;21.024;2023-11-21T06:10:29;26.63;;;14.73;;
22030;SDS011;11179;52.106;21.024;2023-11-21T06:12:54;32.53;;;15.40;;
22030;SDS011;11179;52.106;21.024;2023-11-21T06:15:20;29.23;;;15.17;;
22030;SDS011;11179;52.106;21.024;2023-11-21T06:17:47;27.42;;;15.23;;
22030;SDS011;11179;52.106;21.024;2023-11-21T06:20:20;23.23;;;13.15;;
22030;SDS011;11179;52.106;21.024;2023-11-21T06:22:47;25.10;;;12.93;;
22030;SDS011;11179;52.106;21.024;2023-11-21T06:25:13;23.75;;;14.05;;
22030;SDS011;11179;52.106;21.024;2023-11-21T06:27:40;21.73;;;13.07;;
22030;SDS011;11179;52.106;21.024;2023-11-21T06:30:07;23.85;;;12.40;;
22030;SDS011;11179;52.106;21.024;2023-11-21T06:32:34;22.88;;;12.00;;
22030;SDS011;11179;52.106;21.024;2023-11-21T06:35:01;24.67;;;12.43;;
22030;SDS011;11179;52.106;21.024;2023-11-21T06:37:27;24.33;;;12.40;;
22030;SDS011;11179;52.106;21.024;2023-11-21T06:39:52;21.40;;;12.17;;
22030;SDS011;11179;52.106;21.024;2023-11-21T06:42:18;23.50;;;13.20;;
22030;SDS011;11179;52.106;21.024;2023-11-21T06:44:47;21.42;;;12.55;;
22030;SDS011;11179;52.106;21.024;2023-11-21T06:47:13;26.38;;;13.95;;
22030;SDS011;11179;52.106;21.024;2023-11-21T06:49:39;26.60;;;13.67;;
22030;SDS011;11179;52.106;21.024;2023-11-21T06:52:06;29.98;;;14.10;;
22030;SDS011;11179;52.106;21.024;2023-11-21T06:54:31;23.93;;;13.13;;
22030;SDS011;11179;52.106;21.024;2023-11-21T06:56:57;30.25;;;15.02;;
22030;SDS011;11179;52.106;21.024;2023-11-21T06:59:23;27.67;;;13.60;;
22030;SDS011;11179;52.106;21.024;2023-11-21T07:01:49;24.10;;;14.30;;
22030;SDS011;11179;52.106;21.024;2023-11-21T07:04:15;23.87;;;12.80;;
22030;SDS011;11179;52.106;21.024;2023-11-21T07:06:40;20.90;;;12.60;;
22030;SDS011;11179;52.106;21.024;2023-11-21T07:09:06;23.00;;;13.13;;
22030;SDS011;11179;52.106;21.024;2023-11-21T07:11:33;23.25;;;12.65;;
22030;SDS011;11179;52.106;21.024;2023-11-21T07:13:59;24.83;;;12.85;;
22030;SDS011;11179;52.106;21.024;2023-11-21T07:16:25;20.37;;;12.53;;
22030;SDS011;11179;52.106;21.024;2023-11-21T07:18:51;25.90;;;12.77;;
22030;SDS011;11179;52.106;21.024;2023-11-21T07:21:17;28.30;;;13.30;;
22030;SDS011;11179;52.106;21.024;2023-11-21T07:23:42;19.90;;;10.77;;
22030;SDS011;11179;52.106;21.024;2023-11-21T07:26:07;21.50;;;12.87;;
22030;SDS011;11179;52.106;21.024;2023-11-21T07:28:35;28.92;;;14.55;;
22030;SDS011;11179;52.106;21.024;2023-11-21T07:31:01;24.87;;;12.70;;
22030;SDS011;11179;52.106;21.024;2023-11-21T07:33:26;25.90;;;13.70;;
22030;SDS011;11179;52.106;21.024;2023-11-21T07:35:52;32.57;;;13.27;;
22030;SDS011;11179;52.106;21.024;2023-11-21T07:38:17;24.27;;;12.63;;
22030;SDS011;11179;52.106;21.024;2023-11-21T07:40:43;30.70;;;14.10;;
22030;SDS011;11179;52.106;21.024;2023-11-21T07:43:08;22.80;;;13.27;;
22030;SDS011;11179;52.106;21.024;2023-11-21T07:45:34;21.60;;;12.10;;
22030;SDS011;11179;52.106;21.024;2023-11-21T07:47:59;23.40;;;12.20;;
22030;SDS011;11179;52.106;21.024;2023-11-21T07:50:25;22.83;;;13.38;;
22030;SDS011;11179;52.106;21.024;2023-11-21T07:52:52;28.90;;;14.32;;
22030;SDS011;11179;52.106;21.024;2023-11-21T07:55:19;23.33;;;12.43;;
22030;SDS011;11179;52.106;21.024;2023-11-21T07:57:44;30.03;;;14.93;;
22030;SDS011;11179;52.106;21.024;2023-11-21T08:00:10;25.50;;;14.00;;
22030;SDS011;11179;52.106;21.024;2023-11-21T08:02:37;26.48;;;13.93;;
22030;SDS011;11179;52.106;21.024;2023-11-21T08:05:04;27.38;;;13.43;;
22030;SDS011;11179;52.106;21.024;2023-11-21T08:07:29;25.77;;;13.93;;
22030;SDS011;11179;52.106;21.024;2023-11-21T08:09:56;24.88;;;13.90;;
22030;SDS011;11179;52.106;21.024;2023-11-21T08:12:21;23.97;;;13.20;;
22030;SDS011;11179;52.106;21.024;2023-11-21T08:14:47;25.70;;;14.10;;
22030;SDS011;11179;52.106;21.024;2023-11-21T08:17:12;22.57;;;12.50;;
22030;SDS011;11179;52.106;21.024;2023-11-21T08:19:39;25.35;;;13.38;;
22030;SDS011;11179;52.106;21.024;2023-11-21T08:22:04;24.43;;;12.80;;
22030;SDS011;11179;52.106;21.024;2023-11-21T08:24:30;26.67;;;13.82;;
22030;SDS011;11179;52.106;21.024;2023-11-21T08:26:56;22.90;;;12.50;;
22030;SDS011;11179;52.106;21.024;2023-11-21T08:29:21;24.83;;;13.67;;
22030;SDS011;11179;52.106;21.024;2023-11-21T08:31:48;29.17;;;13.93;;
22030;SDS011;11179;52.106;21.024;2023-11-21T08:34:13;23.30;;;13.67;;
22030;SDS011;11179;52.106;21.024;2023-11-21T08:36:43;26.75;;;13.48;;
22030;SDS011;11179;52.106;21.024;2023-11-21T08:39:09;26.45;;;14.95;;
22030;SDS011;11179;52.106;21.024;2023-11-21T08:41:35;27.85;;;12.85;;
22030;SDS011;11179;52.106;21.024;2023-11-21T08:44:01;24.15;;;12.75;;
22030;SDS011;11179;52.106;21.024;2023-11-21T08:46:31;32.20;;;14.98;;
22030;SDS011;11179;52.106;21.024;2023-11-21T08:48:58;23.95;;;13.68;;
22030;SDS011;11179;52.106;21.024;2023-11-21T08:51:24;24.88;;;13.88;;
22030;SDS011;11179;52.106;21.024;2023-11-21T08:53:50;24.70;;;13.43;;
22030;SDS011;11179;52.106;21.024;2023-11-21T08:56:15;25.30;;;14.20;;
22030;SDS011;11179;52.106;21.024;2023-11-21T08:58:40;22.87;;;13.30;;
22030;SDS011;11179;52.106;21.024;2023-11-21T09:01:06;20.80;;;12.30;;
22030;SDS011;11179;52.106;21.024;2023-11-21T09:03:32;24.47;;;12.37;;
22030;SDS011;11179;52.106;21.024;2023-11-21T09:05:59;23.85;;;12.85;;
22030;SDS011;11179;52.106;21.024;2023-11-21T09:08:25;24.73;;;13.17;;
22030;SDS011;11179;52.106;21.024;2023-11-21T09:10:50;25.13;;;12.63;;
22030;SDS011;11179;52.106;21.024;2023-11-21T09:13:16;29.30;;;13.73;;
22030;SDS011;11179;52.106;21.024;2023-11-21T09:15:43;24.33;;;14.25;;
22030;SDS011;11179;52.106;21.024;2023-11-21T09:18:11;24.85;;;14.85;;
22030;SDS011;11179;52.106;21.024;2023-11-21T09:20:40;25.45;;;12.60;;
22030;SDS011;11179;52.106;21.024;2023-11-21T09:23:05;24.37;;;13.67;;
22030;SDS011;11179;52.106;21.024;2023-11-21T09:25:32;26.58;;;12.60;;
22030;SDS011;11179;52.106;21.024;2023-11-21T09:27:57;27.93;;;13.57;;
22030;SDS011;11179;52.106;21.024;2023-11-21T09:30:23;26.30;;;13.57;;
22030;SDS011;11179;52.106;21.024;2023-11-21T09:32:49;25.30;;;13.10;;
22030;SDS011;11179;52.106;21.024;2023-11-21T09:35:15;25.63;;;14.20;;
22030;SDS011;11179;52.106;21.024;2023-11-21T09:37:43;24.00;;;13.45;;
22030;SDS011;11179;52.106;21.024;2023-11-21T09:40:10;23.58;;;12.80;;
22030;SDS011;11179;52.106;21.024;2023-11-21T09:42:39;25.33;;;13.25;;
22030;SDS011;11179;52.106;21.024;2023-11-21T09:45:13;27.92;;;14.95;;
22030;SDS011;11179;52.106;21.024;2023-11-21T09:47:45;27.30;;;14.73;;
22030;SDS011;11179;52.106;21.024;2023-11-21T09:50:11;30.83;;;16.13;;
22030;SDS011;11179;52.106;21.024;2023-11-21T09:52:49;32.50;;;15.25;;
22030;SDS011;11179;52.106;21.024;2023-11-21T09:55:22;24.60;;;14.68;;
22030;SDS011;11179;52.106;21.024;2023-11-21T09:57:51;26.77;;;15.07;;
22030;SDS011;11179;52.106;21.024;2023-11-21T10:00:18;25.45;;;13.90;;
22030;SDS011;11179;52.106;21.024;2023-11-21T10:02:48;24.73;;;14.23;;
22030;SDS011;11179;52.106;21.024;2023-11-21T10:05:15;30.77;;;14.88;;
22030;SDS011;11179;52.106;21.024;2023-11-21T10:07:43;26.50;;;14.18;;
22030;SDS011;11179;52.106;21.024;2023-11-21T10:10:09;27.67;;;15.40;;
22030;SDS011;11179;52.106;21.024;2023-11-21T10:12:35;28.77;;;15.40;;
22030;SDS011;11179;52.106;21.024;2023-11-21T10:15:03;26.75;;;15.07;;
22030;SDS011;11179;52.106;21.024;2023-11-21T10:17:32;29.45;;;16.17;;
22030;SDS011;11179;52.106;21.024;2023-11-21T10:20:08;28.80;;;15.88;;
22030;SDS011;11179;52.106;21.024;2023-11-21T10:22:37;27.88;;;15.18;;
22030;SDS011;11179;52.106;21.024;2023-11-21T10:25:06;30.98;;;14.93;;
22030;SDS011;11179;52.106;21.024;2023-11-21T10:27:33;29.23;;;15.15;;
22030;SDS011;11179;52.106;21.024;2023-11-21T10:30:00;24.97;;;15.23;;
22030;SDS011;11179;52.106;21.024;2023-11-21T10:32:28;25.42;;;14.82;;
22030;SDS011;11179;52.106;21.024;2023-11-21T10:34:57;24.33;;;14.20;;
22030;SDS011;11179;52.106;21.024;2023-11-21T10:37:22;25.13;;;13.93;;
22030;SDS011;11179;52.106;21.024;2023-11-21T10:39:48;29.60;;;15.13;;
22030;SDS011;11179;52.106;21.024;2023-11-21T10:42:13;28.70;;;16.00;;
22030;SDS011;11179;52.106;21.024;2023-11-21T10:44:41;27.13;;;16.33;;
22030;SDS011;11179;52.106;21.024;2023-11-21T10:47:08;23.20;;;14.18;;
22030;SDS011;11179;52.106;21.024;2023-11-21T10:49:36;25.17;;;14.40;;
22030;SDS011;11179;52.106;21.024;2023-11-21T10:52:02;25.97;;;14.37;;
22030;SDS011;11179;52.106;21.024;2023-11-21T10:54:29;28.02;;;14.52;;
22030;SDS011;11179;52.106;21.024;2023-11-21T10:56:58;29.77;;;15.27;;
22030;SDS011;11179;52.106;21.024;2023-11-21T10:59:26;24.60;;;13.63;;
22030;SDS011;11179;52.106;21.024;2023-11-21T11:01:56;28.27;;;13.10;;
22030;SDS011;11179;52.106;21.024;2023-11-21T11:04:23;26.42;;;15.10;;
22030;SDS011;11179;52.106;21.024;2023-11-21T11:06:56;27.48;;;15.98;;
22030;SDS011;11179;52.106;21.024;2023-11-21T11:09:22;30.33;;;15.32;;
22030;SDS011;11179;52.106;21.024;2023-11-21T11:11:48;31.53;;;16.17;;
22030;SDS011;11179;52.106;21.024;2023-11-21T11:14:15;28.13;;;14.75;;
22030;SDS011;11179;52.106;21.024;2023-11-21T11:16:41;26.23;;;14.88;;
22030;SDS011;11179;52.106;21.024;2023-11-21T11:31:27;29.02;;;14.98;;
22030;SDS011;11179;52.106;21.024;2023-11-21T11:34:31;27.13;;;15.60;;
22030;SDS011;11179;52.106;21.024;2023-11-21T11:37:00;29.13;;;15.10;;
22030;SDS011;11179;52.106;21.024;2023-11-21T11:39:40;25.70;;;15.07;;
22030;SDS011;11179;52.106;21.024;2023-11-21T11:42:17;27.23;;;13.98;;
22030;SDS011;11179;52.106;21.024;2023-11-21T11:47:14;29.65;;;15.77;;
22030;SDS011;11179;52.106;21.024;2023-11-21T11:52:33;25.95;;;14.10;;
22030;SDS011;11179;52.106;21.024;2023-11-21T11:55:08;24.33;;;13.00;;
22030;SDS011;11179;52.106;21.024;2023-11-21T11:57:38;22.80;;;12.48;;
22030;SDS011;11179;52.106;21.024;2023-11-21T12:00:15;23.83;;;14.05;;
22030;SDS011;11179;52.106;21.024;2023-11-21T12:02:54;28.70;;;14.05;;
22030;SDS011;11179;52.106;21.024;2023-11-21T12:05:22;27.48;;;15.82;;
22030;SDS011;11179;52.106;21.024;2023-11-21T12:07:57;27.13;;;14.63;;
22030;SDS011;11179;52.106;21.024;2023-11-21T12:10:29;26.35;;;14.18;;
22030;SDS011;11179;52.106;21.024;2023-11-21T12:13:17;27.23;;;14.20;;
22030;SDS011;11179;52.106;21.024;2023-11-21T12:15:41;32.15;;;16.05;;
22030;SDS011;11179;52.106;21.024;2023-11-21T12:18:07;26.93;;;14.67;;
22030;SDS011;11179;52.106;21.024;2023-11-21T12:20:32;27.10;;;15.67;;
22030;SDS011;11179;52.106;21.024;2023-11-21T12:23:03;27.73;;;15.32;;
22030;SDS011;11179;52.106;21.024;2023-11-21T12:25:30;28.15;;;15.23;;
22030;SDS011;11179;52.106;21.024;2023-11-21T12:28:01;30.60;;;16.80;;
22030;SDS011;11179;52.106;21.024;2023-11-21T12:30:31;31.27;;;15.88;;
22030;SDS011;11179;52.106;21.024;2023-11-21T12:33:01;27.13;;;16.52;;
22030;SDS011;11179;52.106;21.024;2023-11-21T12:35:29;28.10;;;15.90;;
22030;SDS011;11179;52.106;21.024;2023-11-21T12:37:58;27.80;;;15.90;;
22030;SDS011;11179;52.106;21.024;2023-11-21T12:40:25;31.27;;;16.57;;
22030;SDS011;11179;52.106;21.024;2023-11-21T12:42:57;29.27;;;16.80;;
22030;SDS011;11179;52.106;21.024;2023-11-21T12:45:24;31.25;;;16.77;;
22030;SDS011;11179;52.106;21.024;2023-11-21T12:50:22;28.23;;;15.98;;
22030;SDS011;11179;52.106;21.024;2023-11-21T12:52:51;27.75;;;15.63;;
22030;SDS011;11179;52.106;21.024;2023-11-21T12:55:19;28.15;;;14.60;;
22030;SDS011;11179;52.106;21.024;2023-11-21T12:57:52;29.95;;;15.55;;
22030;SDS011;11179;52.106;21.024;2023-11-21T13:00:35;26.52;;;15.80;;
22030;SDS011;11179;52.106;21.024;2023-11-21T13:03:03;21.58;;;12.93;;
22030;SDS011;11179;52.106;21.024;2023-11-21T13:05:31;28.80;;;15.80;;
22030;SDS011;11179;52.106;21.024;2023-11-21T13:08:03;26.98;;;15.32;;
22030;SDS011;11179;52.106;21.024;2023-11-21T13:10:33;29.08;;;15.88;;
22030;SDS011;11179;52.106;21.024;2023-11-21T13:13:01;28.20;;;15.45;;
22030;SDS011;11179;52.106;21.024;2023-11-21T13:15:39;30.60;;;15.50;;
22030;SDS011;11179;52.106;21.024;2023-11-21T13:18:08;26.98;;;14.93;;
22030;SDS011;11179;52.106;21.024;2023-11-21T13:20:36;31.40;;;16.20;;
22030;SDS011;11179;52.106;21.024;2023-11-21T13:23:06;29.88;;;15.57;;
22030;SDS011;11179;52.106;21.024;2023-11-21T13:25:33;26.15;;;15.15;;
22030;SDS011;11179;52.106;21.024;2023-11-21T13:27:58;27.90;;;16.70;;
22030;SDS011;11179;52.106;21.024;2023-11-21T13:30:24;27.20;;;14.50;;
22030;SDS011;11179;52.106;21.024;2023-11-21T13:32:58;31.10;;;15.55;;
22030;SDS011;11179;52.106;21.024;2023-11-21T13:35:30;29.92;;;15.25;;
22030;SDS011;11179;52.106;21.024;2023-11-21T13:38:03;27.02;;;15.75;;
22030;SDS011;11179;52.106;21.024;2023-11-21T13:40:30;29.98;;;16.63;;
22030;SDS011;11179;52.106;21.024;2023-11-21T13:42:56;26.70;;;15.70;;
22030;SDS011;11179;52.106;21.024;2023-11-21T13:45:25;24.20;;;14.20;;
22030;SDS011;11179;52.106;21.024;2023-11-21T13:47:51;28.15;;;16.00;;
22030;SDS011;11179;52.106;21.024;2023-11-21T13:50:20;32.67;;;17.08;;
22030;SDS011;11179;52.106;21.024;2023-11-21T13:52:49;28.30;;;14.60;;
22030;SDS011;11179;52.106;21.024;2023-11-21T13:55:18;31.50;;;16.10;;
22030;SDS011;11179;52.106;21.024;2023-11-21T13:57:44;25.38;;;14.55;;
22030;SDS011;11179;52.106;21.024;2023-11-21T14:00:14;28.38;;;16.60;;
22030;SDS011;11179;52.106;21.024;2023-11-21T14:03:13;28.52;;;16.08;;
22030;SDS011;11179;52.106;21.024;2023-11-21T14:05:47;29.77;;;15.48;;
22030;SDS011;11179;52.106;21.024;2023-11-21T14:08:22;30.40;;;16.02;;
22030;SDS011;11179;52.106;21.024;2023-11-21T14:10:53;26.60;;;14.68;;
22030;SDS011;11179;52.106;21.024;2023-11-21T14:13:28;30.83;;;15.93;;
22030;SDS011;11179;52.106;21.024;2023-11-21T14:15:54;29.30;;;16.65;;
22030;SDS011;11179;52.106;21.024;2023-11-21T14:18:24;34.28;;;15.93;;
22030;SDS011;11179;52.106;21.024;2023-11-21T14:21:04;26.33;;;15.38;;
22030;SDS011;11179;52.106;21.024;2023-11-21T14:23:31;29.92;;;15.32;;
22030;SDS011;11179;52.106;21.024;2023-11-21T14:25:59;28.00;;;14.60;;
22030;SDS011;11179;52.106;21.024;2023-11-21T14:28:26;27.45;;;15.05;;